Time;durP1;ratioP1;P1;durP2;ratioP2;P2;SDS_P1;SDS_P2;PMS_P1;PMS_P2;Temp;Humidity;BMP_temperature;BMP_pressure;BME280_temperature;BME280_humidity;BME280_pressure;Samples;Min_cycle;Max_cycle;Signal;HPM_P1;HPM_P2
2023/11/11 00:00:30;;;;;;;7.50;3.50;;;;;;;11.58;66.89;99921.32;123558;1099;104274;-78
2023/11/11 00:03:21;;;;;;;12.33;3.90;;;;;;;11.57;67.11;99922.16;123592;1102;105408;-79
2023/11/11 00:05:53;;;;;;;8.85;3.40;;;;;;;11.56;66.90;99909.87;123585;1102;104448;-78
2023/11/11 00:08:24;;;;;;;6.70;3.27;;;;;;;11.54;67.31;99901.95;123466;1100;104290;-78
2023/11/11 00:10:56;;;;;;;9.20;3.30;;;;;;;11.56;67.25;99901.98;123472;1102;104285;-78
2023/11/11 00:13:27;;;;;;;8.30;3.43;;;;;;;11.57;67.48;99909.02;123644;1102;104353;-78
2023/11/11 00:15:59;;;;;;;9.80;3.47;;;;;;;11.57;67.37;99901.14;123522;1102;104373;-78
2023/11/11 00:18:31;;;;;;;11.13;3.80;;;;;;;11.57;67.35;99895.89;123382;1099;104370;-78
2023/11/11 00:21:03;;;;;;;11.10;4.20;;;;;;;11.58;67.84;99890.66;123377;1101;104294;-77
2023/11/11 00:23:37;;;;;;;8.20;3.00;;;;;;;11.58;67.87;99885.41;123487;1099;104370;-78
2023/11/11 00:26:08;;;;;;;7.87;3.45;;;;;;;11.60;68.07;99881.06;123468;1099;104242;-77
2023/11/11 00:28:41;;;;;;;10.13;3.37;;;;;;;11.60;68.07;99875.81;123369;1102;104351;-77
2023/11/11 00:31:13;;;;;;;10.33;3.27;;;;;;;11.61;68.23;99866.17;123317;1102;104717;-77
2023/11/11 00:33:44;;;;;;;10.50;3.20;;;;;;;11.62;68.40;99865.33;123320;1102;104393;-78
2023/11/11 00:36:18;;;;;;;10.87;3.47;;;;;;;11.63;68.59;99860.11;123359;1100;104383;-78
2023/11/11 00:38:50;;;;;;;9.97;3.30;;;;;;;11.63;68.87;99844.34;123351;1099;104249;-79
2023/11/11 00:41:23;;;;;;;11.33;3.63;;;;;;;11.65;69.32;99839.99;123331;1099;104347;-78
2023/11/11 00:43:54;;;;;;;10.45;3.90;;;;;;;11.69;69.86;99840.97;123459;1099;104408;-78
2023/11/11 00:46:25;;;;;;;11.40;4.10;;;;;;;11.72;69.93;99827.89;123471;1099;104309;-77
2023/11/11 00:48:57;;;;;;;8.40;3.55;;;;;;;11.76;70.81;99832.33;123555;1102;104290;-77
2023/11/11 00:51:28;;;;;;;10.67;3.67;;;;;;;11.81;71.10;99828.08;123489;1102;104248;-77
2023/11/11 00:54:01;;;;;;;16.73;4.27;;;;;;;11.86;71.08;99818.53;123435;1101;104252;-78
2023/11/11 00:56:32;;;;;;;8.53;4.07;;;;;;;11.91;71.63;99823.00;123490;1102;104235;-77
2023/11/11 00:59:05;;;;;;;10.37;3.80;;;;;;;11.92;72.38;99807.28;123543;1098;104303;-79
2023/11/11 01:01:36;;;;;;;16.63;3.50;;;;;;;11.94;72.46;99805.56;123420;1102;104338;-78
2023/11/11 01:04:08;;;;;;;9.87;3.83;;;;;;;11.95;72.44;99809.06;123415;1099;104402;-78
2023/11/11 01:06:39;;;;;;;13.73;4.03;;;;;;;11.97;72.90;99804.75;123438;1099;104279;-77
2023/11/11 01:09:14;;;;;;;11.50;3.80;;;;;;;11.97;73.31;99802.99;123339;1100;104351;-77
2023/11/11 01:11:46;;;;;;;6.65;3.25;;;;;;;11.96;74.00;99798.58;123436;1102;104169;-78
2023/11/11 01:14:18;;;;;;;7.30;3.20;;;;;;;11.94;74.53;99792.42;123307;1102;104280;-79
2023/11/11 01:16:50;;;;;;;11.40;3.70;;;;;;;11.90;74.26;99787.91;123403;1102;104322;-77
2023/11/11 01:19:21;;;;;;;11.67;3.73;;;;;;;11.87;74.60;99778.25;123313;1099;104349;-77
2023/11/11 01:21:53;;;;;;;9.37;3.70;;;;;;;11.85;74.88;99773.80;123228;1102;104345;-77
2023/11/11 01:24:25;;;;;;;9.43;3.80;;;;;;;11.81;74.77;99774.59;123272;1099;104345;-77
2023/11/11 01:26:56;;;;;;;10.60;4.20;;;;;;;11.78;75.39;99769.28;123265;1102;104321;-78
2023/11/11 01:29:28;;;;;;;10.33;4.70;;;;;;;11.75;75.14;99767.50;123280;1102;104245;-76
2023/11/11 01:32:00;;;;;;;10.10;3.83;;;;;;;11.73;75.59;99763.93;123206;1101;104404;-78
2023/11/11 01:34:31;;;;;;;10.57;3.73;;;;;;;11.71;75.79;99755.14;123423;1102;104386;-76
2023/11/11 01:37:05;;;;;;;10.53;3.93;;;;;;;11.71;76.32;99754.27;123362;1102;105444;-76
2023/11/11 01:39:37;;;;;;;10.33;3.90;;;;;;;11.69;76.15;99749.86;123291;1099;104377;-75
2023/11/11 01:42:08;;;;;;;9.75;4.00;;;;;;;11.67;76.38;99756.84;123335;1099;104476;-76
2023/11/11 01:44:40;;;;;;;10.13;4.27;;;;;;;11.65;76.72;99739.26;123181;1102;104474;-75
2023/11/11 01:47:13;;;;;;;12.90;4.20;;;;;;;11.64;76.75;99737.47;123283;1099;104357;-76
2023/11/11 01:49:45;;;;;;;12.40;4.33;;;;;;;11.63;76.69;99725.21;123303;1100;104387;-77
2023/11/11 01:52:17;;;;;;;10.13;4.37;;;;;;;11.62;77.28;99713.80;123355;1102;104254;-76
2023/11/11 01:54:49;;;;;;;12.65;4.30;;;;;;;11.60;77.63;99704.14;123303;1102;104354;-76
2023/11/11 01:57:21;;;;;;;12.70;4.30;;;;;;;11.57;77.73;99701.45;123294;1102;104277;-76
2023/11/11 01:59:54;;;;;;;9.33;4.80;;;;;;;11.54;77.57;99702.27;123199;1102;104425;-75
2023/11/11 02:02:26;;;;;;;12.43;4.83;;;;;;;11.54;77.86;99704.02;123278;1102;104271;-77
2023/11/11 02:04:58;;;;;;;13.23;5.20;;;;;;;11.53;78.31;99690.00;123283;1099;104287;-76
2023/11/11 02:07:29;;;;;;;13.30;5.23;;;;;;;11.51;78.12;99679.47;123234;1099;104204;-77
2023/11/11 02:10:02;;;;;;;12.53;5.40;;;;;;;11.51;78.63;99675.94;123266;1102;104445;-76
2023/11/11 02:12:35;;;;;;;10.97;4.87;;;;;;;11.49;78.45;99659.27;123221;1100;104277;-76
2023/11/11 02:15:15;;;;;;;14.73;5.67;;;;;;;11.48;78.55;99657.48;123290;1101;104278;-76
2023/11/11 02:17:46;;;;;;;12.50;5.10;;;;;;;11.48;78.94;99653.14;123384;1100;104271;-76
2023/11/11 02:20:18;;;;;;;10.57;5.63;;;;;;;11.49;79.15;99654.02;123322;1099;104274;-75
2023/11/11 02:22:50;;;;;;;15.47;5.70;;;;;;;11.48;79.16;99642.63;123294;1102;104473;-77
2023/11/11 02:25:22;;;;;;;12.73;5.47;;;;;;;11.48;79.50;99641.72;123354;1099;104380;-76
2023/11/11 02:27:53;;;;;;;14.60;6.10;;;;;;;11.49;79.29;99638.25;123359;1102;105627;-77
2023/11/11 02:30:25;;;;;;;18.60;6.37;;;;;;;11.48;79.97;99629.50;123332;1102;104255;-77
2023/11/11 02:32:56;;;;;;;15.17;6.07;;;;;;;11.48;79.85;99625.96;123305;1102;104274;-76
2023/11/11 02:35:29;;;;;;;15.70;6.20;;;;;;;11.48;80.05;99623.33;123405;1101;104253;-76
2023/11/11 02:38:03;;;;;;;15.63;6.23;;;;;;;11.48;80.19;99624.24;123361;1102;104329;-77
2023/11/11 02:40:34;;;;;;;13.55;6.37;;;;;;;11.49;80.12;99627.74;123260;1099;104347;-77
2023/11/11 02:43:06;;;;;;;16.93;6.50;;;;;;;11.50;80.64;99622.52;123338;1099;104271;-76
2023/11/11 02:45:37;;;;;;;17.27;6.50;;;;;;;11.50;80.43;99609.38;123217;1102;104270;-77
2023/11/11 02:48:09;;;;;;;14.93;6.77;;;;;;;11.53;80.66;99590.17;123261;1102;104284;-76
2023/11/11 02:50:40;;;;;;;14.47;6.33;;;;;;;11.52;80.72;99585.77;123152;1102;108231;-77
2023/11/11 02:53:12;;;;;;;16.60;7.20;;;;;;;11.53;80.83;99581.37;123276;1101;104316;-76
2023/11/11 02:55:43;;;;;;;18.23;6.47;;;;;;;11.53;81.21;99577.03;123271;1102;104699;-77
2023/11/11 02:58:15;;;;;;;16.57;7.00;;;;;;;11.54;81.33;99570.02;123231;1102;104245;-76
2023/11/11 03:00:47;;;;;;;18.77;6.53;;;;;;;11.53;81.28;99558.64;123225;1099;104274;-77
2023/11/11 03:03:18;;;;;;;14.23;6.80;;;;;;;11.54;81.40;99552.50;123188;1099;104281;-76
2023/11/11 03:05:51;;;;;;;15.60;7.07;;;;;;;11.55;81.58;99556.04;123286;1099;104338;-76
2023/11/11 03:08:23;;;;;;;15.60;7.30;;;;;;;11.56;81.61;99557.78;123409;1099;104239;-77
2023/11/11 03:10:56;;;;;;;17.03;6.97;;;;;;;11.55;81.95;99549.03;123280;1099;104373;-76
2023/11/11 03:13:28;;;;;;;15.88;6.75;;;;;;;11.58;81.92;99545.58;123375;1102;104242;-77
2023/11/11 03:16:00;;;;;;;14.23;6.77;;;;;;;11.58;82.14;99537.70;123249;1102;104235;-77
2023/11/11 03:18:31;;;;;;;17.00;6.73;;;;;;;11.58;81.73;99542.95;123262;1102;104315;-77
2023/11/11 03:21:03;;;;;;;14.63;6.80;;;;;;;11.59;82.20;99544.70;123261;1102;104274;-77
2023/11/11 03:23:35;;;;;;;14.83;7.03;;;;;;;11.59;82.51;99531.56;123262;1102;104275;-77
2023/11/11 03:26:06;;;;;;;16.87;6.87;;;;;;;11.59;82.34;99521.92;123307;1100;104358;-76
2023/11/11 03:28:39;;;;;;;13.60;6.33;;;;;;;11.60;82.59;99520.20;123258;1099;104418;-77
2023/11/11 03:31:10;;;;;;;13.33;6.17;;;;;;;11.59;82.72;99518.42;123210;1100;104222;-78
2023/11/11 03:33:42;;;;;;;16.07;6.63;;;;;;;11.59;82.74;99515.80;123302;1102;104255;-77
2023/11/11 03:36:13;;;;;;;13.53;6.07;;;;;;;11.58;82.86;99514.05;123254;1100;104373;-77
2023/11/11 03:38:45;;;;;;;14.50;6.43;;;;;;;11.57;83.02;99504.39;123265;1102;104731;-76
2023/11/11 03:41:16;;;;;;;18.60;7.07;;;;;;;11.57;83.03;99504.39;123239;1099;104341;-77
2023/11/11 03:43:48;;;;;;;16.40;7.47;;;;;;;11.57;83.28;99496.51;123295;1102;104320;-77
2023/11/11 03:46:19;;;;;;;15.47;7.30;;;;;;;11.55;83.18;99493.86;123138;1102;104284;-78
2023/11/11 03:48:51;;;;;;;17.00;7.17;;;;;;;11.54;83.34;99492.08;123266;1099;104727;-76
2023/11/11 03:51:22;;;;;;;15.50;6.63;;;;;;;11.54;83.43;99485.95;123298;1102;104280;-76
2023/11/11 03:53:54;;;;;;;15.67;6.77;;;;;;;11.53;83.51;99481.55;123863;1102;104348;-77
2023/11/11 03:56:25;;;;;;;16.57;7.13;;;;;;;11.52;83.82;99478.05;124289;1102;104323;-77
2023/11/11 03:58:57;;;;;;;20.23;7.77;;;;;;;11.51;83.67;99466.66;124326;1102;104605;-75
2023/11/11 04:01:28;;;;;;;15.80;6.53;;;;;;;11.50;83.91;99466.64;123204;1102;104252;-77
2023/11/11 04:04:01;;;;;;;14.73;7.47;;;;;;;11.48;83.99;99474.50;123306;1099;104431;-75
2023/11/11 04:06:32;;;;;;;14.00;6.90;;;;;;;11.49;84.19;99464.86;123105;1102;104383;-77
2023/11/11 04:09:04;;;;;;;17.35;7.05;;;;;;;11.49;84.37;99468.36;123237;1099;104310;-76
2023/11/11 04:11:36;;;;;;;16.07;6.73;;;;;;;11.50;84.29;99464.89;123215;1102;104746;-77
2023/11/11 04:14:07;;;;;;;17.40;7.20;;;;;;;11.51;84.57;99463.13;123303;1102;104358;-76
2023/11/11 04:16:40;;;;;;;16.60;6.60;;;;;;;11.53;84.60;99460.53;123204;1102;104257;-78
2023/11/11 04:19:11;;;;;;;17.07;7.10;;;;;;;11.55;84.65;99449.20;123276;1102;104271;-76
2023/11/11 04:21:47;;;;;;;14.97;6.23;;;;;;;11.57;84.80;99447.46;123204;1099;104648;-76
2023/11/11 04:24:19;;;;;;;13.57;5.97;;;;;;;11.59;84.87;99439.61;123253;1100;104805;-77
2023/11/11 04:26:51;;;;;;;14.33;6.57;;;;;;;11.60;85.27;99441.38;123170;1101;104351;-77
2023/11/11 04:29:23;;;;;;;12.90;6.50;;;;;;;11.59;85.08;99437.84;123240;1099;104294;-76
2023/11/11 04:31:54;;;;;;;13.13;6.00;;;;;;;11.61;85.13;99437.87;123107;1099;104373;-76
2023/11/11 04:34:28;;;;;;;13.17;6.27;;;;;;;11.61;85.53;99429.98;123304;1102;104271;-76
2023/11/11 04:36:59;;;;;;;;;;;;;;;11.61;85.09;99429.98;123179;1102;104268;-77
2023/11/11 04:39:30;;;;;;;12.20;5.93;;;;;;;11.62;85.53;99430.01;123132;1102;104265;-77
2023/11/11 04:42:02;;;;;;;16.53;6.50;;;;;;;11.64;85.57;99430.03;123175;1100;104288;-77
2023/11/11 04:44:33;;;;;;;12.83;6.50;;;;;;;11.65;85.76;99423.92;123212;1102;104251;-77
2023/11/11 04:47:06;;;;;;;13.80;6.57;;;;;;;11.67;85.95;99422.19;123146;1099;104278;-77
2023/11/11 04:49:38;;;;;;;16.95;6.08;;;;;;;11.69;85.57;99412.61;123291;1099;104277;-76
2023/11/11 04:52:10;;;;;;;13.93;6.43;;;;;;;11.72;86.15;99420.53;123187;1099;104370;-77
2023/11/11 04:54:42;;;;;;;13.03;5.97;;;;;;;11.73;86.43;99414.39;123274;1102;104309;-76
2023/11/11 04:57:13;;;;;;;15.97;6.30;;;;;;;11.75;86.38;99404.81;123251;1100;104251;-77
2023/11/11 04:59:45;;;;;;;14.60;6.30;;;;;;;11.75;86.58;99399.55;123288;1100;104277;-76
2023/11/11 05:02:16;;;;;;;14.33;6.40;;;;;;;11.76;86.65;99393.41;123242;1099;104281;-77
2023/11/11 05:04:48;;;;;;;13.67;6.23;;;;;;;11.78;86.93;99383.83;123278;1099;104284;-78
2023/11/11 05:07:22;;;;;;;12.67;6.50;;;;;;;11.79;86.84;99382.94;123299;1102;104734;-77
2023/11/11 05:09:54;;;;;;;18.25;7.20;;;;;;;11.80;86.79;99374.20;123254;1099;104405;-77
2023/11/11 05:12:25;;;;;;;18.90;8.27;;;;;;;11.81;87.18;99373.35;123197;1099;104268;-77
2023/11/11 05:14:57;;;;;;;18.90;7.20;;;;;;;11.84;86.99;99381.27;123306;1102;104257;-77
2023/11/11 05:17:28;;;;;;;18.80;7.33;;;;;;;11.85;87.28;99369.88;123195;1100;104245;-77
2023/11/11 05:20:00;;;;;;;14.83;7.13;;;;;;;11.85;87.64;99367.25;123225;1102;104342;-76
2023/11/11 05:22:31;;;;;;;16.90;7.43;;;;;;;11.86;87.43;99361.14;123094;1099;104322;-77
2023/11/11 05:25:03;;;;;;;19.10;7.67;;;;;;;11.88;87.56;99361.16;123243;1099;104271;-76
2023/11/11 05:27:34;;;;;;;17.43;7.83;;;;;;;11.88;87.58;99348.89;123188;1100;104322;-77
2023/11/11 05:30:08;;;;;;;17.00;7.15;;;;;;;11.90;87.92;99348.03;123264;1099;104252;-77
2023/11/11 05:32:40;;;;;;;19.25;7.45;;;;;;;11.90;87.85;99345.41;123261;1100;104213;-76
2023/11/11 05:35:12;;;;;;;19.97;7.30;;;;;;;11.90;88.17;99346.28;123229;1102;104392;-76
2023/11/11 05:37:44;;;;;;;19.73;7.47;;;;;;;11.90;87.95;99343.65;123270;1102;104290;-75
2023/11/11 05:40:18;;;;;;;14.70;7.00;;;;;;;11.92;88.03;99341.03;123211;1100;104724;-76
2023/11/11 05:42:49;;;;;;;16.97;7.62;;;;;;;11.95;88.36;99344.64;123512;1099;104354;-76
2023/11/11 05:45:21;;;;;;;16.07;7.07;;;;;;;11.99;88.48;99342.92;123257;1099;104272;-76
2023/11/11 05:47:52;;;;;;;15.70;7.17;;;;;;;12.02;88.50;99348.21;123167;1102;104396;-75
2023/11/11 05:50:24;;;;;;;15.00;7.23;;;;;;;12.05;88.57;99351.75;123351;1102;104216;-78
2023/11/11 05:52:55;;;;;;;17.27;7.33;;;;;;;12.09;88.66;99347.43;123255;1102;104347;-77
2023/11/11 05:55:28;;;;;;;16.87;7.40;;;;;;;12.13;88.79;99354.47;123463;1102;104328;-77
2023/11/11 05:57:59;;;;;;;18.30;8.00;;;;;;;12.17;89.15;99350.11;123276;1102;104277;-77
2023/11/11 06:00:31;;;;;;;18.20;7.87;;;;;;;12.20;88.88;99352.77;123191;1102;104475;-78
2023/11/11 06:03:02;;;;;;;19.67;7.43;;;;;;;12.26;89.20;99346.70;123221;1102;104437;-76
2023/11/11 06:05:34;;;;;;;18.23;7.90;;;;;;;12.29;89.39;99344.11;123245;1102;104271;-76
2023/11/11 06:08:09;;;;;;;18.50;7.30;;;;;;;12.32;89.46;99338.88;123316;1099;104319;-76
2023/11/11 06:10:41;;;;;;;15.40;7.07;;;;;;;12.35;89.63;99333.65;123171;1102;104340;-76
2023/11/11 06:13:13;;;;;;;17.37;7.80;;;;;;;12.38;89.49;99339.81;123172;1102;104351;-76
2023/11/11 06:15:45;;;;;;;18.00;7.27;;;;;;;12.40;89.87;99343.36;123231;1100;104274;-76
2023/11/11 06:18:17;;;;;;;19.57;7.77;;;;;;;12.44;90.27;99340.77;123187;1102;104352;-76
2023/11/11 06:20:48;;;;;;;19.63;7.77;;;;;;;12.47;90.15;99333.77;123192;1102;104267;-76
2023/11/11 06:23:20;;;;;;;19.55;7.20;;;;;;;12.51;89.84;99337.30;123170;1102;104333;-74
2023/11/11 06:25:51;;;;;;;17.67;7.27;;;;;;;12.54;90.45;99330.34;123201;1102;104448;-75
2023/11/11 06:28:23;;;;;;;19.40;7.30;;;;;;;12.57;90.37;99322.48;123268;1102;104242;-76
2023/11/11 06:30:54;;;;;;;19.63;7.67;;;;;;;12.63;90.69;99328.65;123204;1100;104248;-76
2023/11/11 06:33:28;;;;;;;23.50;7.60;;;;;;;12.67;90.49;99326.06;123268;1098;104252;-78
2023/11/11 06:36:00;;;;;;;;;;;;;;;12.73;91.07;99323.48;123268;1102;104734;-76
2023/11/11 06:38:31;;;;;;;19.55;6.50;;;;;;;12.82;91.21;99313.88;123195;1102;104370;-75
2023/11/11 06:41:03;;;;;;;16.63;6.93;;;;;;;12.87;90.61;99315.69;123235;1102;104309;-76
2023/11/11 06:43:34;;;;;;;16.80;6.70;;;;;;;12.92;91.25;99308.70;123266;1099;104392;-76
2023/11/11 06:46:07;;;;;;;17.63;6.90;;;;;;;12.94;90.75;99308.70;123256;1099;104220;-76
2023/11/11 06:48:38;;;;;;;20.13;7.17;;;;;;;12.94;90.96;99304.31;123223;1102;104373;-76
2023/11/11 06:51:09;;;;;;;17.57;6.67;;;;;;;12.97;91.01;99302.59;123154;1102;104325;-75
2023/11/11 06:53:41;;;;;;;22.00;7.57;;;;;;;12.97;91.23;99303.46;123113;1099;104264;-76
2023/11/11 06:56:17;;;;;;;19.00;7.27;;;;;;;13.02;91.27;99295.59;123128;1102;104387;-75
2023/11/11 06:58:48;;;;;;;17.80;7.00;;;;;;;13.07;91.94;99291.23;123186;1100;104246;-76
2023/11/11 07:01:23;;;;;;;17.37;6.90;;;;;;;13.13;91.84;99288.63;123176;1102;104291;-75
2023/11/11 07:03:56;;;;;;;22.13;7.37;;;;;;;13.19;91.72;99282.53;123181;1101;104179;-76
2023/11/11 07:06:28;;;;;;;19.70;6.95;;;;;;;13.25;91.61;99278.17;123176;1102;104269;-74
2023/11/11 07:08:59;;;;;;;19.97;6.90;;;;;;;13.29;92.69;99279.95;123312;1099;104290;-76
2023/11/11 07:11:31;;;;;;;18.53;7.10;;;;;;;13.36;92.20;99275.63;123231;1102;104224;-76
2023/11/11 07:14:03;;;;;;;19.87;7.47;;;;;;;13.41;92.08;99279.15;123208;1102;104450;-76
2023/11/11 07:16:35;;;;;;;20.07;7.60;;;;;;;13.47;92.41;99273.04;123165;1102;104373;-77
2023/11/11 07:19:06;;;;;;;24.47;7.43;;;;;;;13.49;92.28;99271.28;123238;1102;104232;-76
2023/11/11 07:21:38;;;;;;;21.80;7.40;;;;;;;13.51;92.23;99269.55;123170;1102;104293;-75
2023/11/11 07:24:11;;;;;;;23.40;7.47;;;;;;;13.53;92.30;99270.43;123277;1101;105614;-75
2023/11/11 07:26:43;;;;;;;22.17;7.73;;;;;;;13.56;92.31;99262.53;123208;1102;104258;-75
2023/11/11 07:29:15;;;;;;;21.83;8.03;;;;;;;13.57;93.13;99261.67;123228;1101;104267;-75
2023/11/11 07:31:46;;;;;;;21.53;7.30;;;;;;;13.57;92.31;99253.77;123244;1102;104299;-75
2023/11/11 07:34:18;;;;;;;21.67;7.83;;;;;;;13.56;92.48;99249.36;123291;1102;104248;-75
2023/11/11 07:36:50;;;;;;;21.13;8.43;;;;;;;13.56;92.78;99252.00;123195;1100;104249;-75
2023/11/11 07:39:21;;;;;;;22.20;8.20;;;;;;;13.55;93.22;99247.59;123222;1101;104344;-76
2023/11/11 07:41:53;;;;;;;21.10;8.00;;;;;;;13.55;92.52;99244.95;123295;1102;104332;-76
2023/11/11 07:44:24;;;;;;;17.63;8.23;;;;;;;13.55;93.00;99246.72;123295;1102;104233;-75
2023/11/11 07:46:56;;;;;;;18.63;8.07;;;;;;;13.55;92.53;99244.08;123288;1099;104294;-75
2023/11/11 07:49:27;;;;;;;19.43;7.90;;;;;;;13.56;92.81;99243.22;123391;1099;104344;-75
2023/11/11 07:51:59;;;;;;;15.17;6.47;;;;;;;13.59;93.12;99256.41;123433;1099;104315;-76
2023/11/11 07:54:31;;;;;;;18.23;6.50;;;;;;;13.62;92.81;99249.38;123310;1099;105960;-75
2023/11/11 07:57:03;;;;;;;16.47;6.57;;;;;;;13.64;93.08;99246.75;123267;1102;104254;-75
2023/11/11 07:59:35;;;;;;;16.10;6.77;;;;;;;13.68;93.34;99242.36;123258;1102;104322;-76
2023/11/11 08:02:07;;;;;;;19.00;6.47;;;;;;;13.68;93.79;99239.72;123299;1102;104859;-75
2023/11/11 08:04:38;;;;;;;16.57;7.00;;;;;;;13.68;93.70;99240.63;123252;1102;104178;-75
2023/11/11 08:07:11;;;;;;;18.43;7.00;;;;;;;13.70;93.27;99240.59;123185;1101;107016;-75
2023/11/11 08:09:43;;;;;;;17.63;6.50;;;;;;;13.72;93.32;99238.87;123240;1099;104255;-74
2023/11/11 08:12:14;;;;;;;14.60;6.73;;;;;;;13.76;93.22;99230.06;123172;1099;104201;-74
2023/11/11 08:14:46;;;;;;;18.17;7.20;;;;;;;13.78;92.95;99220.42;123196;1102;104351;-75
2023/11/11 08:17:17;;;;;;;14.23;6.93;;;;;;;13.82;94.37;99223.08;123161;1102;104442;-75
2023/11/11 08:19:49;;;;;;;19.80;6.97;;;;;;;13.83;93.41;99213.39;123210;1100;104277;-76
2023/11/11 08:22:21;;;;;;;19.53;7.00;;;;;;;13.84;93.89;99207.27;123256;1102;104469;-77
2023/11/11 08:24:52;;;;;;;14.77;6.53;;;;;;;13.85;93.96;99201.09;123308;1102;104351;-76
2023/11/11 08:27:24;;;;;;;14.97;6.53;;;;;;;13.88;93.64;99208.13;123293;1099;104252;-75
2023/11/11 08:29:55;;;;;;;19.95;6.90;;;;;;;13.90;93.62;99209.01;123275;1099;104272;-76
2023/11/11 08:32:27;;;;;;;15.47;6.67;;;;;;;13.91;93.36;99208.14;123170;1099;104240;-76
2023/11/11 08:34:58;;;;;;;15.60;7.20;;;;;;;13.92;93.60;99196.73;123232;1102;104268;-76
2023/11/11 08:37:32;;;;;;;14.30;6.63;;;;;;;13.95;94.39;99194.09;123075;1102;104345;-76
2023/11/11 08:40:06;;;;;;;19.92;7.17;;;;;;;13.99;93.41;99180.91;123199;1102;104277;-76
2023/11/11 08:42:35;;;;;;;;;;;;;;;14.06;93.93;99186.19;123158;1100;104270;-76
2023/11/11 08:45:09;;;;;;;17.70;7.47;;;;;;;14.10;94.24;99180.02;123221;1102;104399;-76
2023/11/11 08:47:41;;;;;;;18.50;7.00;;;;;;;14.17;93.62;99168.59;123297;1102;104325;-76
2023/11/11 08:50:13;;;;;;;15.60;7.20;;;;;;;14.23;94.09;99168.59;123222;1102;104221;-75
2023/11/11 08:52:45;;;;;;;12.87;6.87;;;;;;;14.25;94.38;99165.96;123379;1100;104274;-76
2023/11/11 08:55:18;;;;;;;16.83;7.43;;;;;;;14.25;94.43;99169.47;123281;1099;104295;-74
2023/11/11 08:57:51;;;;;;;20.70;7.67;;;;;;;14.25;93.92;99164.19;123274;1099;104533;-76
2023/11/11 09:00:25;;;;;;;20.00;7.30;;;;;;;14.22;94.08;99165.96;123525;1102;104280;-75
2023/11/11 09:02:56;;;;;;;19.25;7.12;;;;;;;14.19;93.69;99164.19;123276;1101;104246;-75
2023/11/11 09:05:28;;;;;;;15.90;7.00;;;;;;;14.14;94.06;99158.91;123263;1102;104412;-76
2023/11/11 09:07:59;;;;;;;17.23;7.37;;;;;;;14.12;93.80;99146.63;123302;1099;104488;-76
2023/11/11 09:10:31;;;;;;;19.50;6.83;;;;;;;14.08;94.04;99143.09;123173;1099;104440;-76
2023/11/11 09:13:03;;;;;;;14.90;6.90;;;;;;;14.06;93.86;99130.80;123329;1102;104419;-75
2023/11/11 09:15:35;;;;;;;17.23;7.70;;;;;;;14.08;94.14;99129.03;123237;1100;104241;-75
2023/11/11 09:18:07;;;;;;;17.80;7.60;;;;;;;14.08;94.63;99121.98;123214;1102;104246;-75
2023/11/11 09:20:39;;;;;;;15.67;6.87;;;;;;;14.10;93.88;99109.70;123299;1102;104344;-76
2023/11/11 09:23:11;;;;;;;19.17;7.33;;;;;;;14.14;94.49;99110.56;123240;1101;104393;-74
2023/11/11 09:25:42;;;;;;;16.97;7.33;;;;;;;14.18;94.36;99105.28;123286;1102;104277;-75
2023/11/11 09:28:14;;;;;;;18.30;7.83;;;;;;;14.23;93.71;99092.09;123188;1100;104264;-75
2023/11/11 09:30:46;;;;;;;17.70;7.00;;;;;;;14.31;94.53;99085.03;123292;1102;104692;-75
2023/11/11 09:33:17;;;;;;;17.90;7.60;;;;;;;14.44;94.06;99080.59;123254;1102;104201;-74
2023/11/11 09:35:49;;;;;;;14.83;7.50;;;;;;;14.59;94.40;99084.96;123130;1099;104322;-74
2023/11/11 09:38:20;;;;;;;16.57;7.70;;;;;;;14.73;94.33;99083.17;123173;1102;105608;-74
2023/11/11 09:40:52;;;;;;;17.05;7.95;;;;;;;14.85;94.71;99078.72;123192;1102;104284;-74
2023/11/11 09:43:23;;;;;;;18.70;8.45;;;;;;;14.96;94.54;99078.67;123358;1102;104306;-75
2023/11/11 09:45:58;;;;;;;19.17;8.90;;;;;;;15.07;94.16;99076.88;123277;1102;104256;-74
2023/11/11 09:48:31;;;;;;;18.70;8.90;;;;;;;15.18;93.90;99066.25;123308;1099;104340;-74
2023/11/11 09:51:06;;;;;;;17.57;7.20;;;;;;;15.25;93.79;99060.92;123174;1099;104271;-73
2023/11/11 09:53:40;;;;;;;19.30;8.33;;;;;;;15.31;94.12;99037.97;123256;1099;104296;-73
2023/11/11 09:56:13;;;;;;;19.13;8.30;;;;;;;15.46;94.00;99038.73;123271;1102;104242;-75
2023/11/11 09:58:46;;;;;;;18.33;8.43;;;;;;;15.65;94.04;99038.59;123147;1102;104319;-74
2023/11/11 10:01:18;;;;;;;21.50;8.23;;;;;;;15.68;94.00;99035.05;123294;1100;104254;-73
2023/11/11 10:03:49;;;;;;;16.30;8.37;;;;;;;15.60;93.61;99030.70;123376;1102;104309;-75
2023/11/11 10:06:23;;;;;;;14.07;7.10;;;;;;;15.50;93.63;99029.00;123295;1102;104364;-74
2023/11/11 10:08:56;;;;;;;15.20;6.83;;;;;;;15.38;93.32;99019.42;123278;1102;104293;-74
2023/11/11 10:11:27;;;;;;;16.80;7.30;;;;;;;15.29;92.55;99011.56;123278;1100;104258;-74
2023/11/11 10:13:59;;;;;;;16.90;7.75;;;;;;;15.24;92.43;99005.44;123317;1099;104271;-73
2023/11/11 10:16:32;;;;;;;15.20;7.00;;;;;;;15.27;92.70;99005.42;123286;1099;104265;-74
2023/11/11 10:19:04;;;;;;;14.53;6.60;;;;;;;15.37;93.00;98999.16;123176;1099;104271;-74
2023/11/11 10:21:37;;;;;;;18.53;7.37;;;;;;;15.36;93.21;98994.75;123207;1102;104360;-74
2023/11/11 10:24:11;;;;;;;18.75;8.03;;;;;;;15.37;93.23;98985.08;123190;1102;104238;-73
2023/11/11 10:26:43;;;;;;;14.63;7.05;;;;;;;15.49;93.12;98989.37;123276;1101;104347;-75
2023/11/11 10:29:15;;;;;;;16.07;7.20;;;;;;;15.62;92.59;98988.38;123187;1099;105872;-74
2023/11/11 10:31:49;;;;;;;15.90;6.60;;;;;;;15.81;93.27;98984.69;123220;1102;104347;-76
2023/11/11 10:34:21;;;;;;;15.93;6.90;;;;;;;15.88;92.87;98979.34;123336;1099;104271;-77
2023/11/11 10:36:52;;;;;;;16.43;7.53;;;;;;;15.86;92.66;98978.48;123344;1099;104320;-73
2023/11/11 10:39:25;;;;;;;18.50;7.13;;;;;;;15.88;91.72;98971.41;123264;1100;104461;-76
2023/11/11 10:41:57;;;;;;;19.30;7.00;;;;;;;15.90;92.18;98967.00;123221;1102;104293;-77
2023/11/11 10:44:28;;;;;;;17.40;6.97;;;;;;;15.90;91.85;98972.29;123522;1102;104259;-76
2023/11/11 10:47:00;;;;;;;16.90;7.20;;;;;;;15.90;91.38;98967.00;123247;1102;104225;-75
2023/11/11 10:49:33;;;;;;;15.20;7.20;;;;;;;15.88;91.38;98976.70;123329;1099;104495;-79
2023/11/11 10:52:06;;;;;;;15.03;7.03;;;;;;;15.85;91.16;98989.95;123276;1099;104216;-76
2023/11/11 10:54:39;;;;;;;13.90;6.63;;;;;;;15.89;90.83;98975.81;123411;1099;104274;-75
2023/11/11 10:57:11;;;;;;;13.80;6.37;;;;;;;15.85;89.95;98984.66;123307;1099;104348;-76
2023/11/11 10:59:43;;;;;;;14.90;6.40;;;;;;;15.77;89.86;98980.34;123461;1102;104370;-76
2023/11/11 11:02:14;;;;;;;15.33;6.77;;;;;;;15.83;89.82;98970.58;123520;1102;104293;-77
2023/11/11 11:04:53;;;;;;;16.20;6.90;;;;;;;15.89;90.65;98978.45;123411;1101;104358;-76
2023/11/11 11:07:29;;;;;;;15.05;5.90;;;;;;;15.94;89.38;98966.95;123304;1102;104260;-77
2023/11/11 11:10:07;;;;;;;14.40;6.27;;;;;;;15.91;89.53;98966.08;123403;1099;104264;-76
2023/11/11 11:12:45;;;;;;;13.10;6.55;;;;;;;15.91;90.09;98968.73;123623;1102;104364;-77
2023/11/11 11:15:19;;;;;;;12.93;6.50;;;;;;;15.86;89.22;98959.98;123661;1099;104453;-77
2023/11/11 11:17:53;;;;;;;15.57;7.13;;;;;;;15.77;89.40;98948.61;123303;1099;104223;-76
2023/11/11 11:20:26;;;;;;;16.87;6.60;;;;;;;15.72;89.31;98939.82;123556;1100;104267;-76
2023/11/11 11:23:04;;;;;;;14.97;6.50;;;;;;;15.63;88.97;98943.42;123529;1102;104194;-77
2023/11/11 11:25:41;;;;;;;15.77;7.03;;;;;;;15.57;88.44;98946.12;123625;1102;104248;-77
2023/11/11 11:28:21;;;;;;;15.95;7.10;;;;;;;15.55;88.53;98929.41;123590;1102;104348;-79
2023/11/11 11:30:54;;;;;;;18.17;6.63;;;;;;;15.54;88.40;98925.00;123760;1099;104367;-78